Time;durP1;ratioP1;P1;durP2;ratioP2;P2;SDS_P1;SDS_P2;PMS_P1;PMS_P2;Temp;Humidity;BMP_temperature;BMP_pressure;BME280_temperature;BME280_humidity;BME280_pressure;Samples;Min_cycle;Max_cycle;Signal;HPM_P1;HPM_P2
2021/05/12 00:02:18;;;;;;;29.25;19.95;;;14.30;90.90;;;;;;4937575;29;20055;-89
2021/05/12 00:04:44;;;;;;;29.25;21.58;;;14.30;90.90;;;;;;4936889;29;20016;-90
2021/05/12 00:07:10;;;;;;;28.33;20.42;;;14.20;91.00;;;;;;4937417;29;20078;-89
2021/05/12 00:09:36;;;;;;;27.73;21.10;;;14.20;90.90;;;;;;4936986;29;20497;-90
2021/05/12 00:12:01;;;;;;;29.60;20.92;;;14.20;90.90;;;;;;4937596;29;20039;-89
2021/05/12 00:14:27;;;;;;;27.45;20.25;;;14.30;91.00;;;;;;4937325;29;20436;-90
2021/05/12 00:16:53;;;;;;;27.55;20.73;;;14.30;90.90;;;;;;4937541;29;20027;-89
2021/05/12 00:19:21;;;;;;;27.05;21.05;;;14.20;90.90;;;;;;4937444;29;20161;-90
2021/05/12 00:21:51;;;;;;;28.45;21.52;;;14.30;90.90;;;;;;4936868;29;20122;-89
2021/05/12 00:24:16;;;;;;;31.33;21.67;;;14.20;91.00;;;;;;4936863;29;20033;-90
2021/05/12 00:26:43;;;;;;;28.85;18.92;;;14.20;91.10;;;;;;4937393;29;20417;-89
2021/05/12 00:29:12;;;;;;;26.52;18.88;;;14.20;91.00;;;;;;4938406;29;20051;-89
2021/05/12 00:31:37;;;;;;;25.60;18.55;;;14.20;91.00;;;;;;4937408;29;20059;-90
2021/05/12 00:34:06;;;;;;;25.58;18.02;;;14.20;90.90;;;;;;4936903;29;20179;-89
2021/05/12 00:36:32;;;;;;;25.37;18.30;;;14.20;91.00;;;;;;4936659;29;20027;-89
2021/05/12 00:38:57;;;;;;;25.77;19.15;;;14.20;90.90;;;;;;4937497;29;20399;-89
2021/05/12 00:41:24;;;;;;;25.75;18.88;;;14.10;91.00;;;;;;4937059;29;20122;-90
2021/05/12 00:43:50;;;;;;;23.95;17.02;;;14.10;91.00;;;;;;4937327;29;20038;-89
2021/05/12 00:46:15;;;;;;;27.38;18.23;;;14.10;91.00;;;;;;4937386;29;20027;-89
2021/05/12 00:48:41;;;;;;;25.85;18.20;;;14.10;91.00;;;;;;4937079;29;20039;-90
2021/05/12 00:51:07;;;;;;;27.70;18.48;;;14.10;90.90;;;;;;4937161;29;20078;-90
2021/05/12 00:53:33;;;;;;;27.23;17.60;;;14.20;91.00;;;;;;4936982;29;20054;-89
2021/05/12 00:55:59;;;;;;;27.85;19.60;;;14.20;91.00;;;;;;4936743;29;20051;-90
2021/05/12 00:58:25;;;;;;;26.25;17.90;;;14.20;90.90;;;;;;4936316;29;20374;-90
2021/05/12 01:00:51;;;;;;;27.17;18.65;;;14.20;91.00;;;;;;4936389;29;20051;-89
2021/05/12 01:03:17;;;;;;;25.83;18.58;;;14.10;90.90;;;;;;4936711;29;20035;-89
2021/05/12 01:05:48;;;;;;;27.30;18.80;;;14.20;90.90;;;;;;4936607;29;20035;-90
2021/05/12 01:08:15;;;;;;;25.35;18.02;;;14.10;90.90;;;;;;4936502;29;20066;-90
2021/05/12 01:10:40;;;;;;;27.80;19.15;;;14.20;90.90;;;;;;4936805;29;20058;-90
2021/05/12 01:13:06;;;;;;;27.63;19.65;;;14.10;90.90;;;;;;4936467;29;20473;-91
2021/05/12 01:15:31;;;;;;;26.23;18.52;;;14.20;90.90;;;;;;4936176;29;20586;-90
2021/05/12 01:18:11;;;;;;;24.98;17.92;;;14.10;90.90;;;;;;4936365;29;20052;-90
2021/05/12 01:20:54;;;;;;;29.48;18.48;;;14.20;90.90;;;;;;4918110;29;20041;-90
2021/05/12 01:23:22;;;;;;;28.70;18.83;;;14.20;90.90;;;;;;4917694;29;20031;-89
2021/05/12 01:25:49;;;;;;;28.50;18.75;;;14.20;90.90;;;;;;4917441;29;20027;-90
2021/05/12 01:28:16;;;;;;;26.23;18.65;;;14.10;90.90;;;;;;4920690;29;20062;-89
2021/05/12 01:30:53;;;;;;;28.38;19.08;;;14.10;90.90;;;;;;4926256;29;20031;-90
2021/05/12 01:33:18;;;;;;;28.65;18.85;;;14.10;90.90;;;;;;4929630;29;20023;-89
2021/05/12 01:35:44;;;;;;;26.63;18.88;;;14.10;91.00;;;;;;4927145;29;20032;-90
2021/05/12 01:38:10;;;;;;;25.70;18.50;;;14.10;91.00;;;;;;4921815;29;20038;-89
2021/05/12 01:40:35;;;;;;;27.13;17.73;;;14.10;91.00;;;;;;4917547;29;20140;-89
2021/05/12 01:43:01;;;;;;;26.63;18.40;;;14.10;91.00;;;;;;4917229;29;20063;-90
2021/05/12 01:45:26;;;;;;;26.17;17.92;;;14.10;91.10;;;;;;4917317;29;20028;-90
2021/05/12 01:47:52;;;;;;;26.17;18.33;;;14.10;91.00;;;;;;4917229;29;20032;-89
2021/05/12 01:50:17;;;;;;;26.83;17.73;;;14.10;91.10;;;;;;4917109;29;20122;-89
2021/05/12 01:52:44;;;;;;;26.42;17.15;;;14.10;91.00;;;;;;4917137;29;20123;-90
2021/05/12 01:55:13;;;;;;;26.55;17.58;;;14.10;91.00;;;;;;4916746;29;20032;-89
2021/05/12 01:57:44;;;;;;;25.73;17.75;;;14.10;91.00;;;;;;4916723;29;20032;-90
2021/05/12 02:00:46;;;;;;;28.00;18.63;;;14.10;91.10;;;;;;4916333;29;20035;-90
2021/05/12 02:03:12;;;;;;;27.88;18.77;;;14.10;91.10;;;;;;4916730;29;20038;-90
2021/05/12 02:05:39;;;;;;;28.40;19.33;;;14.00;91.10;;;;;;4916839;29;20054;-89
2021/05/12 02:08:07;;;;;;;28.02;19.88;;;14.00;91.00;;;;;;4916941;29;20131;-89
2021/05/12 02:10:34;;;;;;;27.73;18.75;;;14.10;91.00;;;;;;4917070;29;20148;-89
2021/05/12 02:13:00;;;;;;;27.70;19.80;;;14.00;91.00;;;;;;4916528;29;20030;-89
2021/05/12 02:15:26;;;;;;;27.42;18.50;;;14.00;91.00;;;;;;4916401;29;20028;-90
2021/05/12 02:17:53;;;;;;;29.20;18.85;;;14.00;91.00;;;;;;4916701;29;20589;-89
2021/05/12 02:20:23;;;;;;;26.23;18.48;;;14.00;91.10;;;;;;4916628;29;20122;-90
2021/05/12 02:22:48;;;;;;;28.45;17.95;;;14.00;91.10;;;;;;4934797;29;20310;-89
2021/05/12 02:25:14;;;;;;;27.35;18.77;;;14.00;91.00;;;;;;4935751;29;20027;-90
2021/05/12 02:27:40;;;;;;;26.50;18.00;;;14.00;91.00;;;;;;4937055;29;20066;-89
2021/05/12 02:30:07;;;;;;;28.42;18.65;;;14.00;91.10;;;;;;4938916;29;20470;-90
2021/05/12 02:32:33;;;;;;;27.98;18.08;;;14.00;91.00;;;;;;4939138;29;20023;-89
2021/05/12 02:34:59;;;;;;;27.63;18.23;;;14.00;91.10;;;;;;4939078;29;20034;-91
2021/05/12 02:37:26;;;;;;;28.65;18.40;;;14.00;91.20;;;;;;4939044;29;20162;-90
2021/05/12 02:39:52;;;;;;;25.48;17.25;;;14.00;91.10;;;;;;4939196;29;20178;-89
2021/05/12 02:42:18;;;;;;;27.05;17.80;;;13.90;91.20;;;;;;4938684;29;20544;-90
2021/05/12 02:44:44;;;;;;;26.92;18.42;;;13.90;91.20;;;;;;4938902;29;20031;-90
2021/05/12 02:47:10;;;;;;;28.40;18.17;;;13.90;91.20;;;;;;4938885;29;20496;-90
2021/05/12 02:49:35;;;;;;;26.48;18.05;;;13.90;91.20;;;;;;4938751;29;20379;-89
2021/05/12 02:52:02;;;;;;;24.48;16.77;;;13.90;91.20;;;;;;4934818;29;20030;-89
2021/05/12 02:54:27;;;;;;;26.60;17.27;;;13.90;91.10;;;;;;4919483;29;20474;-90
2021/05/12 02:56:53;;;;;;;28.40;19.05;;;13.90;91.50;;;;;;4938054;29;20156;-90
2021/05/12 02:59:20;;;;;;;30.10;18.05;;;13.80;91.10;;;;;;4938796;29;20061;-90
2021/05/12 03:01:46;;;;;;;25.83;18.33;;;13.90;91.20;;;;;;4938544;29;20074;-89
2021/05/12 03:04:11;;;;;;;26.42;18.10;;;13.90;91.10;;;;;;4919926;29;20023;-91
2021/05/12 03:06:37;;;;;;;26.65;18.30;;;13.90;91.10;;;;;;4919280;29;20067;-90
2021/05/12 03:09:05;;;;;;;26.38;17.27;;;13.90;91.20;;;;;;4919762;29;20070;-90
2021/05/12 03:11:31;;;;;;;25.95;17.38;;;13.90;91.30;;;;;;4919573;29;20106;-90
2021/05/12 03:13:57;;;;;;;26.80;17.67;;;13.90;91.10;;;;;;4919955;29;20036;-90
2021/05/12 03:16:23;;;;;;;27.58;18.50;;;13.90;91.20;;;;;;4919264;29;20035;-89
2021/05/12 03:18:48;;;;;;;25.45;17.70;;;13.90;91.10;;;;;;4919264;29;20122;-91
2021/05/12 03:21:14;;;;;;;26.90;18.20;;;13.90;91.10;;;;;;4919419;29;20035;-90
2021/05/12 03:23:40;;;;;;;28.02;19.52;;;13.90;91.10;;;;;;4919403;29;20067;-90
2021/05/12 03:26:05;;;;;;;27.63;18.63;;;13.90;91.10;;;;;;4918969;29;20032;-90
2021/05/12 03:28:31;;;;;;;26.58;18.38;;;13.80;91.10;;;;;;4918760;29;20059;-90
2021/05/12 03:30:57;;;;;;;24.95;16.33;;;13.90;91.10;;;;;;4918898;29;20031;-89
2021/05/12 03:33:22;;;;;;;25.98;17.27;;;13.90;91.20;;;;;;4918960;29;20482;-89
2021/05/12 03:35:48;;;;;;;25.77;17.65;;;13.80;91.10;;;;;;4919040;29;20031;-90
2021/05/12 03:38:14;;;;;;;23.98;16.27;;;13.80;91.20;;;;;;4936269;29;20126;-90
2021/05/12 03:40:41;;;;;;;24.85;15.52;;;13.80;91.20;;;;;;4937945;29;20086;-90
2021/05/12 03:43:07;;;;;;;22.55;15.05;;;13.80;91.20;;;;;;4938295;29;20122;-89
2021/05/12 03:45:33;;;;;;;24.65;14.65;;;13.80;91.20;;;;;;4937765;29;20122;-90
2021/05/12 03:47:59;;;;;;;24.10;15.02;;;13.80;91.20;;;;;;4938031;29;20031;-91
2021/05/12 03:50:26;;;;;;;22.90;14.80;;;13.80;91.20;;;;;;4939290;29;20051;-89
2021/05/12 03:52:52;;;;;;;20.40;13.40;;;13.80;91.20;;;;;;4947018;29;20090;-90
2021/05/12 03:55:18;;;;;;;22.08;13.55;;;13.70;91.10;;;;;;4948082;29;20034;-90
2021/05/12 03:57:44;;;;;;;20.52;13.23;;;13.70;91.20;;;;;;4949529;29;20031;-90
2021/05/12 04:00:12;;;;;;;20.17;13.05;;;13.70;91.20;;;;;;4943129;29;20033;-90
2021/05/12 04:02:37;;;;;;;21.50;13.20;;;13.70;91.10;;;;;;4939789;29;20478;-90
2021/05/12 04:05:04;;;;;;;20.40;13.10;;;13.70;91.20;;;;;;4938789;29;20027;-89
2021/05/12 04:07:29;;;;;;;20.65;12.07;;;13.70;91.20;;;;;;4939703;29;20304;-89
2021/05/12 04:09:55;;;;;;;18.85;11.32;;;13.60;91.10;;;;;;4939684;29;20405;-89
2021/05/12 04:12:21;;;;;;;19.92;12.45;;;13.60;91.10;;;;;;4938779;29;20397;-90
2021/05/12 04:14:46;;;;;;;20.08;12.45;;;13.60;91.10;;;;;;4935002;29;20494;-90
2021/05/12 04:17:12;;;;;;;18.73;11.30;;;13.60;91.10;;;;;;4919988;29;20035;-89
2021/05/12 04:19:37;;;;;;;19.95;12.52;;;13.60;91.10;;;;;;4919022;29;20019;-89
2021/05/12 04:22:03;;;;;;;20.10;11.77;;;13.60;91.00;;;;;;4919338;29;20036;-90
2021/05/12 04:24:30;;;;;;;19.77;11.90;;;13.60;91.10;;;;;;4919303;29;20482;-91
2021/05/12 04:26:55;;;;;;;20.65;12.88;;;13.60;91.00;;;;;;4936421;29;20028;-90
2021/05/12 04:29:21;;;;;;;19.20;11.52;;;13.60;91.00;;;;;;4938487;29;20055;-90
2021/05/12 04:31:47;;;;;;;19.25;11.88;;;13.60;91.00;;;;;;4937552;29;20027;-91
2021/05/12 04:34:13;;;;;;;20.35;12.02;;;13.60;90.90;;;;;;4947268;29;20017;-91
2021/05/12 04:36:39;;;;;;;20.52;12.30;;;13.60;91.00;;;;;;4957873;29;20055;-91
2021/05/12 04:39:05;;;;;;;19.75;12.38;;;13.60;90.90;;;;;;4942456;29;20058;-90
2021/05/12 04:41:32;;;;;;;20.70;12.73;;;13.60;91.00;;;;;;4938329;29;20062;-89
2021/05/12 04:43:57;;;;;;;21.67;13.18;;;13.60;91.00;;;;;;4938248;29;20028;-90
2021/05/12 04:46:24;;;;;;;19.65;12.77;;;13.50;91.00;;;;;;4937546;29;20028;-89
2021/05/12 04:48:50;;;;;;;20.73;13.00;;;13.60;91.00;;;;;;4938600;29;20058;-90
2021/05/12 04:51:16;;;;;;;22.80;13.70;;;13.60;91.00;;;;;;4938028;29;20409;-90
2021/05/12 04:53:41;;;;;;;20.77;13.15;;;13.60;91.10;;;;;;4938167;29;20035;-90
2021/05/12 04:56:07;;;;;;;21.45;14.27;;;13.60;91.00;;;;;;4935564;29;20027;-89
2021/05/12 04:58:33;;;;;;;22.15;14.27;;;13.60;91.20;;;;;;4919798;29;20031;-87
2021/05/12 05:00:58;;;;;;;23.00;13.60;;;13.50;91.00;;;;;;4918381;29;20391;-88
2021/05/12 05:03:24;;;;;;;21.00;14.27;;;13.50;90.90;;;;;;4919064;29;20090;-88
2021/05/12 05:05:50;;;;;;;24.08;15.70;;;13.60;91.00;;;;;;4919124;29;20036;-87
2021/05/12 05:08:15;;;;;;;22.05;13.93;;;13.60;90.90;;;;;;4917881;29;20437;-87
2021/05/12 05:10:41;;;;;;;23.15;15.13;;;13.60;90.90;;;;;;4919148;29;20034;-88
2021/05/12 05:13:07;;;;;;;22.02;14.95;;;13.60;91.00;;;;;;4937473;29;20423;-88
2021/05/12 05:15:32;;;;;;;23.55;14.55;;;13.60;90.90;;;;;;4918179;29;20035;-88
2021/05/12 05:17:58;;;;;;;24.23;16.55;;;13.70;90.90;;;;;;4929406;29;20035;-87
2021/05/12 05:20:26;;;;;;;24.40;16.00;;;13.60;90.80;;;;;;4937102;29;20054;-86
2021/05/12 05:22:52;;;;;;;25.80;17.35;;;13.70;90.80;;;;;;4954495;29;20058;-87
2021/05/12 05:25:17;;;;;;;25.40;16.48;;;13.70;90.80;;;;;;4955196;29;20027;-87
2021/05/12 05:27:43;;;;;;;27.08;17.60;;;13.70;90.80;;;;;;4936355;29;20406;-88
2021/05/12 05:30:09;;;;;;;27.30;17.98;;;13.70;90.80;;;;;;4936441;29;20065;-88
2021/05/12 05:32:35;;;;;;;27.55;18.80;;;13.70;90.80;;;;;;4934944;29;20033;-87
2021/05/12 05:35:00;;;;;;;27.38;17.45;;;13.60;90.80;;;;;;4937135;29;20424;-87
2021/05/12 05:37:26;;;;;;;25.45;17.65;;;13.70;90.80;;;;;;4935658;29;20031;-87
2021/05/12 05:39:52;;;;;;;27.98;18.20;;;13.70;90.70;;;;;;4938620;29;20023;-88
2021/05/12 05:42:18;;;;;;;26.45;17.40;;;13.70;90.80;;;;;;4935503;29;20042;-87
2021/05/12 05:44:43;;;;;;;26.38;19.20;;;13.70;90.80;;;;;;4935727;29;20432;-88
2021/05/12 05:47:09;;;;;;;25.45;18.08;;;13.60;90.70;;;;;;4935136;29;20023;-88
2021/05/12 05:49:37;;;;;;;30.33;20.00;;;13.70;90.80;;;;;;4920294;29;20054;-85
2021/05/12 05:52:04;;;;;;;28.93;19.83;;;13.70;90.70;;;;;;4925759;29;20040;-87
2021/05/12 05:54:29;;;;;;;30.77;19.08;;;13.70;90.70;;;;;;4933068;29;20765;-87
2021/05/12 05:56:55;;;;;;;29.88;20.25;;;13.60;90.60;;;;;;4932885;29;20321;-87
2021/05/12 05:59:21;;;;;;;29.58;20.88;;;13.70;90.70;;;;;;4918222;29;20059;-86
2021/05/12 06:01:46;;;;;;;28.83;19.30;;;13.60;90.70;;;;;;4936445;29;20074;-86
2021/05/12 06:04:12;;;;;;;28.65;18.42;;;13.70;90.70;;;;;;4920143;29;20039;-87
2021/05/12 06:06:38;;;;;;;29.70;19.23;;;13.60;90.70;;;;;;4920989;29;20050;-86
2021/05/12 06:09:04;;;;;;;28.67;19.67;;;13.60;90.60;;;;;;4949416;28;20031;-86
2021/05/12 06:11:29;;;;;;;27.98;18.88;;;13.70;90.70;;;;;;4938949;29;20032;-89
2021/05/12 06:13:55;;;;;;;26.73;18.83;;;13.70;90.60;;;;;;4937804;29;20556;-87
2021/05/12 06:16:21;;;;;;;28.95;19.17;;;13.70;90.60;;;;;;4921337;29;20035;-88
2021/05/12 06:18:47;;;;;;;26.40;18.00;;;13.70;90.60;;;;;;4925525;29;20080;-79
2021/05/12 06:21:13;;;;;;;49.78;18.90;;;13.70;90.50;;;;;;4953933;29;20049;-81
2021/05/12 06:23:39;;;;;;;56.63;17.90;;;13.70;90.50;;;;;;4922770;29;20043;-80
2021/05/12 06:26:13;;;;;;;35.17;17.95;;;13.70;90.50;;;;;;4920141;29;20048;-80
2021/05/12 06:28:40;;;;;;;31.80;17.40;;;13.70;90.40;;;;;;4931164;29;20101;-79
2021/05/12 06:31:07;;;;;;;41.42;18.23;;;13.70;90.40;;;;;;4961228;28;20035;-81
2021/05/12 06:33:32;;;;;;;39.05;16.63;;;13.70;90.40;;;;;;4939923;29;20031;-79
2021/05/12 06:35:58;;;;;;;40.97;17.88;;;13.80;90.40;;;;;;4966228;29;20031;-79
2021/05/12 06:38:24;;;;;;;36.00;17.73;;;13.80;90.30;;;;;;4942463;29;20401;-78
2021/05/12 06:40:49;;;;;;;30.45;16.55;;;13.80;90.20;;;;;;4936533;29;20039;-81
2021/05/12 06:43:15;;;;;;;32.45;17.38;;;13.90;90.10;;;;;;4944510;29;20338;-82
2021/05/12 06:45:40;;;;;;;37.28;17.85;;;13.90;90.10;;;;;;4927950;29;20035;-83
2021/05/12 06:48:07;;;;;;;32.08;17.25;;;13.90;90.00;;;;;;4931737;29;20039;-79
2021/05/12 06:50:33;;;;;;;27.67;16.60;;;13.90;90.00;;;;;;4931323;29;20039;-82
2021/05/12 06:52:58;;;;;;;26.50;16.30;;;14.00;89.90;;;;;;4937632;29;20077;-80
2021/05/12 06:55:25;;;;;;;24.88;16.15;;;14.00;89.90;;;;;;4934051;29;20031;-80
2021/05/12 06:57:51;;;;;;;23.77;15.75;;;14.00;89.80;;;;;;4948687;29;20028;-82
2021/05/12 07:00:18;;;;;;;24.30;15.55;;;14.00;89.60;;;;;;4925716;29;20166;-82
2021/05/12 07:02:44;;;;;;;23.88;15.52;;;14.00;89.80;;;;;;4930989;29;20169;-81
2021/05/12 07:05:14;;;;;;;24.70;14.95;;;14.10;89.40;;;;;;4918785;28;20069;-84
2021/05/12 07:07:40;;;;;;;23.88;14.25;;;14.20;89.30;;;;;;4933999;29;20042;-86
2021/05/12 07:10:07;;;;;;;23.10;14.38;;;14.20;89.10;;;;;;4941595;29;20482;-83
2021/05/12 07:12:32;;;;;;;22.85;13.82;;;14.30;88.90;;;;;;4936840;28;20035;-83
2021/05/12 07:14:58;;;;;;;26.30;14.48;;;14.40;88.70;;;;;;4954230;29;20058;-85
2021/05/12 07:17:23;;;;;;;24.33;14.13;;;14.40;88.50;;;;;;4937714;29;20296;-83
2021/05/12 07:19:49;;;;;;;22.58;12.75;;;14.40;88.40;;;;;;4921872;29;20019;-82
2021/05/12 07:22:15;;;;;;;22.88;12.75;;;14.40;88.30;;;;;;4934571;29;20548;-81
2021/05/12 07:24:40;;;;;;;22.17;12.23;;;14.50;88.00;;;;;;4954820;29;20039;-83
2021/05/12 07:27:06;;;;;;;24.50;12.43;;;14.50;88.10;;;;;;4921221;29;20142;-85
2021/05/12 07:29:31;;;;;;;20.50;11.35;;;14.50;88.60;;;;;;4932115;29;20473;-84
2021/05/12 07:31:57;;;;;;;18.23;10.07;;;14.50;87.80;;;;;;4935053;29;20355;-84
2021/05/12 07:34:22;;;;;;;19.92;9.90;;;14.60;87.60;;;;;;4936758;29;20389;-85
2021/05/12 07:36:48;;;;;;;18.35;9.15;;;14.60;87.30;;;;;;4937227;29;20109;-81
2021/05/12 07:39:14;;;;;;;19.90;9.30;;;14.60;87.00;;;;;;4955022;29;20081;-82
2021/05/12 07:41:40;;;;;;;21.67;9.43;;;14.70;87.10;;;;;;4950463;28;20428;-81
2021/05/12 07:44:08;;;;;;;19.10;10.45;;;14.70;86.80;;;;;;4932323;29;20034;-86
2021/05/12 07:46:34;;;;;;;19.05;9.43;;;14.70;86.70;;;;;;4923122;29;20186;-89
2021/05/12 07:48:59;;;;;;;18.38;8.68;;;14.70;86.40;;;;;;4954108;29;20658;-80
2021/05/12 07:51:25;;;;;;;17.48;8.68;;;14.80;86.10;;;;;;4950271;29;20497;-80
2021/05/12 07:53:51;;;;;;;18.85;8.30;;;14.80;85.90;;;;;;4951013;29;20504;-81
2021/05/12 07:56:16;;;;;;;20.30;9.23;;;14.90;85.70;;;;;;4934326;29;20389;-79
2021/05/12 07:58:42;;;;;;;24.42;9.57;;;14.90;85.60;;;;;;4934023;29;20058;-80
2021/05/12 08:01:19;;;;;;;19.20;9.48;;;14.90;85.40;;;;;;4931822;28;20483;-83
2021/05/12 08:03:45;;;;;;;18.05;8.93;;;14.90;85.10;;;;;;4971622;28;20416;-82
2021/05/12 08:06:10;;;;;;;16.85;8.40;;;15.00;85.40;;;;;;4932859;29;20034;-82
2021/05/12 08:08:38;;;;;;;18.38;8.68;;;15.00;85.40;;;;;;4934095;29;20028;-81
2021/05/12 08:11:04;;;;;;;17.35;8.20;;;15.00;85.00;;;;;;4933391;29;20026;-84
2021/05/12 08:13:30;;;;;;;18.35;8.73;;;15.10;84.90;;;;;;4933443;29;20541;-84
2021/05/12 08:15:56;;;;;;;18.25;8.00;;;15.10;84.70;;;;;;4940863;29;20111;-86
2021/05/12 08:18:21;;;;;;;15.98;6.40;;;15.10;84.70;;;;;;4926301;29;20019;-87
2021/05/12 08:20:47;;;;;;;18.63;6.40;;;15.10;84.40;;;;;;4938175;29;20027;-82
2021/05/12 08:23:12;;;;;;;37.25;7.97;;;15.20;84.10;;;;;;4957052;29;20032;-87
2021/05/12 08:25:43;;;;;;;38.35;7.80;;;15.20;84.00;;;;;;4935834;29;20491;-81
2021/05/12 08:28:09;;;;;;;31.40;6.50;;;15.20;83.50;;;;;;4951484;29;20043;-85
2021/05/12 08:30:36;;;;;;;20.95;5.88;;;15.20;83.50;;;;;;4936774;29;20039;-80
2021/05/12 08:33:03;;;;;;;17.23;5.78;;;15.30;83.40;;;;;;4953626;28;20034;-85
2021/05/12 08:35:29;;;;;;;15.55;4.72;;;15.40;83.20;;;;;;4935740;29;20024;-84
2021/05/12 08:37:54;;;;;;;18.80;5.22;;;15.40;82.30;;;;;;4951990;29;20600;-87
2021/05/12 08:40:21;;;;;;;15.32;5.00;;;15.50;82.70;;;;;;4917510;29;20032;-87
2021/05/12 08:42:50;;;;;;;16.70;5.57;;;15.60;82.10;;;;;;4917285;29;20036;-86
2021/05/12 08:45:17;;;;;;;19.88;5.78;;;15.70;81.40;;;;;;4954595;29;20421;-82
2021/05/12 08:47:45;;;;;;;17.55;5.15;;;15.90;81.40;;;;;;4943393;28;20032;-91
2021/05/12 08:50:11;;;;;;;14.30;4.68;;;15.90;80.80;;;;;;4950522;28;20036;-85
2021/05/12 08:52:38;;;;;;;14.40;6.13;;;16.00;80.60;;;;;;4953590;29;20240;-83
2021/05/12 08:55:05;;;;;;;18.95;5.70;;;16.00;80.40;;;;;;4916646;29;20356;-83
2021/05/12 08:57:30;;;;;;;16.35;5.18;;;16.00;79.40;;;;;;4933177;29;20031;-82
2021/05/12 08:59:56;;;;;;;15.63;5.00;;;16.10;80.30;;;;;;4944115;29;20031;-83
2021/05/12 09:02:21;;;;;;;15.27;5.00;;;16.10;80.30;;;;;;4934475;29;20034;-81
2021/05/12 09:04:48;;;;;;;20.65;6.15;;;16.10;80.10;;;;;;4936633;29;20031;-86
2021/05/12 09:07:16;;;;;;;13.27;4.50;;;16.10;79.80;;;;;;4938062;29;20114;-87
2021/05/12 09:09:42;;;;;;;16.70;5.40;;;16.20;79.80;;;;;;4935449;29;20023;-88
2021/05/12 09:12:12;;;;;;;15.90;5.35;;;16.20;79.60;;;;;;4938518;29;20481;-90
2021/05/12 09:14:39;;;;;;;15.57;5.18;;;16.20;79.00;;;;;;4938215;29;20047;-85
2021/05/12 09:17:05;;;;;;;15.20;5.28;;;16.20;79.20;;;;;;4945372;29;20047;-84
2021/05/12 09:19:31;;;;;;;15.15;5.88;;;16.20;79.20;;;;;;4953993;29;20023;-85
2021/05/12 09:22:06;;;;;;;14.13;4.90;;;16.30;79.00;;;;;;4923733;29;20043;-88
2021/05/12 09:24:40;;;;;;;17.33;5.45;;;16.30;78.90;;;;;;4929373;29;20032;-87
2021/05/12 09:27:20;;;;;;;22.08;5.65;;;16.30;78.90;;;;;;4927454;29;20098;-89
2021/05/12 09:29:56;;;;;;;19.15;5.55;;;16.30;78.80;;;;;;4941669;29;20063;-91
2021/05/12 09:32:22;;;;;;;16.27;5.57;;;16.30;78.60;;;;;;4943020;29;20036;-89
2021/05/12 09:34:52;;;;;;;16.52;5.60;;;16.40;78.30;;;;;;4960271;29;20027;-89
2021/05/12 09:37:35;;;;;;;16.85;5.95;;;16.50;77.60;;;;;;4938449;29;20028;-88
2021/05/12 09:40:05;;;;;;;14.07;6.10;;;16.60;75.30;;;;;;4936449;29;20039;-87
2021/05/12 09:42:30;;;;;;;19.08;5.50;;;16.70;78.10;;;;;;4936461;29;20039;-87
2021/05/12 09:45:16;;;;;;;17.95;5.60;;;16.70;77.80;;;;;;4929668;29;20434;-89
2021/05/12 09:47:44;;;;;;;18.92;5.68;;;16.70;77.50;;;;;;4916902;29;20066;-87
2021/05/12 09:50:10;;;;;;;17.10;5.57;;;16.80;77.70;;;;;;4919563;29;20277;-85
2021/05/12 09:52:36;;;;;;;15.10;5.20;;;16.90;77.60;;;;;;4952013;29;20031;-87
2021/05/12 09:55:04;;;;;;;15.35;5.05;;;16.90;77.10;;;;;;4934292;29;20027;-89
2021/05/12 09:57:29;;;;;;;19.55;4.97;;;16.90;77.10;;;;;;4961988;28;20068;-86
2021/05/12 09:59:55;;;;;;;16.38;5.30;;;17.00;77.20;;;;;;4940876;28;20083;-85
2021/05/12 10:02:20;;;;;;;16.35;4.82;;;17.00;76.50;;;;;;4932933;29;20051;-86
2021/05/12 10:04:48;;;;;;;15.57;5.85;;;17.10;76.60;;;;;;4921662;29;20027;-83
2021/05/12 10:07:20;;;;;;;17.13;4.75;;;17.10;76.30;;;;;;4948590;29;20028;-88
2021/05/12 10:09:56;;;;;;;12.40;4.68;;;17.10;76.30;;;;;;4951083;28;20028;-86
2021/05/12 10:12:22;;;;;;;19.85;5.53;;;17.20;75.80;;;;;;4950660;29;20445;-86
2021/05/12 10:14:50;;;;;;;16.45;4.95;;;17.30;76.00;;;;;;4950503;29;20038;-88
2021/05/12 10:17:18;;;;;;;15.13;4.68;;;17.30;75.00;;;;;;4935611;29;20027;-87
2021/05/12 10:19:46;;;;;;;15.10;4.68;;;17.30;75.80;;;;;;4931410;29;20482;-87
2021/05/12 10:22:12;;;;;;;17.08;4.40;;;17.40;75.30;;;;;;4938687;29;20043;-90
2021/05/12 10:24:40;;;;;;;15.07;4.70;;;17.40;75.10;;;;;;4950855;29;20089;-89
2021/05/12 10:27:14;;;;;;;12.70;4.03;;;17.40;73.80;;;;;;4932871;29;20553;-91
2021/05/12 10:29:44;;;;;;;16.13;3.70;;;17.50;74.00;;;;;;4933247;29;20063;-87
2021/05/12 10:32:26;;;;;;;11.07;3.67;;;17.50;73.10;;;;;;4932527;29;20478;-88
2021/05/12 10:35:19;;;;;;;16.67;4.45;;;17.50;73.10;;;;;;4935116;29;20478;-90
2021/05/12 10:37:47;;;;;;;11.80;3.67;;;17.50;69.70;;;;;;4918908;29;20121;-87
2021/05/12 10:40:20;;;;;;;10.82;3.70;;;17.60;72.50;;;;;;4949640;29;20019;-88
2021/05/12 10:45:38;;;;;;;15.90;3.97;;;17.90;67.90;;;;;;4949856;29;20027;-88
2021/05/12 10:48:06;;;;;;;17.00;4.22;;;18.00;70.70;;;;;;4953442;28;20393;-83
2021/05/12 10:50:46;;;;;;;15.38;3.83;;;18.10;71.60;;;;;;4956420;29;20081;-81
2021/05/12 10:53:25;;;;;;;17.23;3.58;;;18.10;69.00;;;;;;4957318;28;20027;-85
2021/05/12 10:55:57;;;;;;;;;;;18.20;69.00;;;;;;4940648;29;20035;-86
2021/05/12 10:58:24;;;;;;;12.80;3.80;;;18.30;67.10;;;;;;4939429;29;20325;-83
2021/05/12 11:00:58;;;;;;;14.55;4.00;;;18.50;69.10;;;;;;4932400;29;20031;-85
2021/05/12 11:03:25;;;;;;;14.73;4.05;;;18.50;66.40;;;;;;4919562;29;20509;-84
2021/05/12 11:05:54;;;;;;;23.30;3.75;;;18.70;69.80;;;;;;4917479;29;20184;-82
2021/05/12 11:08:20;;;;;;;15.80;3.92;;;18.70;69.50;;;;;;4935423;29;20023;-86
2021/05/12 11:10:49;;;;;;;14.70;3.80;;;18.80;69.20;;;;;;4935941;29;20340;-84
2021/05/12 11:13:19;;;;;;;13.77;3.67;;;18.70;68.60;;;;;;4938040;29;20034;-82
2021/05/12 11:15:53;;;;;;;16.13;3.63;;;18.60;69.10;;;;;;4936621;29;20044;-84
2021/05/12 11:18:34;;;;;;;13.05;3.03;;;18.60;68.30;;;;;;4937023;29;20127;-85
2021/05/12 11:24:11;;;;;;;12.48;3.15;;;18.50;63.90;;;;;;4954199;29;20039;-84
2021/05/12 11:32:08;;;;;;;12.13;3.25;;;18.30;65.10;;;;;;4938083;29;20042;-84
2021/05/12 11:34:35;;;;;;;23.98;4.22;;;18.20;69.40;;;;;;4919453;29;20035;-85
2021/05/12 11:37:10;;;;;;;21.60;3.83;;;18.10;69.60;;;;;;4935419;29;20032;-84
2021/05/12 11:39:36;;;;;;;19.45;3.50;;;18.00;69.10;;;;;;4916937;29;20035;-84
2021/05/12 11:42:02;;;;;;;13.80;3.55;;;18.00;70.20;;;;;;4916452;29;20031;-85
2021/05/12 11:44:28;;;;;;;16.60;3.42;;;18.00;70.40;;;;;;4951886;29;20118;-87
2021/05/12 11:46:54;;;;;;;15.85;3.72;;;17.90;70.50;;;;;;4952705;29;20520;-86
2021/05/12 11:49:22;;;;;;;12.13;3.60;;;17.90;70.50;;;;;;4929240;29;20031;-86
2021/05/12 11:51:51;;;;;;;18.08;3.70;;;17.80;70.40;;;;;;4922525;29;20110;-84
2021/05/12 11:54:24;;;;;;;16.98;4.10;;;17.90;70.70;;;;;;4938141;29;20084;-83
2021/05/12 11:56:52;;;;;;;16.05;3.50;;;17.80;69.50;;;;;;4932780;29;20031;-83
2021/05/12 11:59:21;;;;;;;14.13;3.50;;;17.90;69.80;;;;;;4920512;29;20086;-83
2021/05/12 12:01:49;;;;;;;;;;;17.90;70.80;;;;;;4939734;29;20520;-83
2021/05/12 12:04:37;;;;;;;10.07;3.00;;;18.00;61.90;;;;;;4924948;29;19942;-83
2021/05/12 12:07:05;;;;;;;17.38;4.35;;;18.00;70.20;;;;;;4922832;29;20682;-83
2021/05/12 12:09:31;;;;;;;15.73;3.53;;;18.00;69.50;;;;;;4922438;29;20054;-83
2021/05/12 12:11:58;;;;;;;13.57;3.50;;;18.00;69.20;;;;;;4942312;29;20055;-82
2021/05/12 12:14:32;;;;;;;14.77;3.60;;;18.00;69.40;;;;;;4931538;29;20075;-80
2021/05/12 12:16:59;;;;;;;14.20;3.60;;;18.00;69.00;;;;;;4953139;29;20169;-79
2021/05/12 12:19:25;;;;;;;13.68;3.92;;;18.00;69.10;;;;;;4966841;29;20470;-80
2021/05/12 12:21:54;;;;;;;9.05;3.42;;;18.00;68.90;;;;;;4924350;29;20032;-81
2021/05/12 12:24:27;;;;;;;12.32;3.65;;;18.00;69.60;;;;;;4921381;29;20083;-84
2021/05/12 12:26:55;;;;;;;15.13;4.20;;;18.00;69.30;;;;;;4932765;29;20122;-81
2021/05/12 12:29:30;;;;;;;17.98;3.45;;;18.00;67.90;;;;;;4936706;29;20043;-81
2021/05/12 12:32:09;;;;;;;22.30;3.75;;;18.00;66.40;;;;;;4931623;29;20055;-81
2021/05/12 12:34:44;;;;;;;;;;;18.00;65.90;;;;;;4950905;29;20040;-84
2021/05/12 12:37:18;;;;;;;13.02;2.70;;;18.10;69.30;;;;;;4936729;29;19997;-82
2021/05/12 12:39:55;;;;;;;18.52;6.25;;;18.20;67.70;;;;;;4949976;29;20059;-81
2021/05/12 12:42:29;;;;;;;17.55;5.18;;;18.30;68.40;;;;;;4920523;29;20634;-83
2021/05/12 12:45:03;;;;;;;12.63;3.60;;;18.40;68.40;;;;;;4918772;29;20512;-81